Terminal Aerodrome Forecast
Issued by NWS Sterling, VA

Home | Current Version | Previous Version | Text Only | Print | Product List | Glossary On
Versions: 1 2 3 4 5 6 7 8 9 10 11 12 13 14 15 16 17 18 19 20
000
FTUS41 KLWX 301100
TAFBWI
TAF
KBWI 301131Z 3012/3118 11004KT P6SM BKN035 OVC060
     FM301400 15008KT P6SM BKN060
     FM301900 16008KT P6SM BKN090
     FM302300 16008KT P6SM SCT250
     FM310500 17006KT P6SM BKN090
     FM310700 18006KT 4SM BR BKN050
     FM311200 20006KT P6SM BKN200=

USA.gov is the U.S. government's official web portal to all federal, state and local government web resources and services.